createdAt,value
2022-11-26T00:02:28.014Z,10.13
2022-11-26T00:07:51.923Z,8.75
2022-11-26T00:13:33.169Z,8.02
2022-11-26T00:19:00.910Z,8.48
2022-11-26T00:24:42.875Z,9.00
2022-11-26T00:30:08.887Z,9.25
2022-11-26T00:35:35.887Z,8.07
2022-11-26T00:41:00.910Z,6.63
2022-11-26T00:46:28.909Z,8.32
2022-11-26T00:51:56.889Z,7.40
2022-11-26T00:57:20.872Z,6.15
2022-11-26T01:02:45.945Z,6.80
2022-11-26T01:08:14.897Z,7.05
2022-11-26T01:13:46.921Z,5.55
2022-11-26T01:19:11.891Z,6.90
2022-11-26T01:24:39.137Z,5.47
2022-11-26T01:30:03.899Z,7.72
2022-11-26T01:35:28.904Z,6.18
2022-11-26T01:41:18.915Z,6.45
2022-11-26T01:46:49.900Z,5.85
2022-11-26T01:52:21.928Z,5.20
2022-11-26T01:57:48.950Z,6.15
2022-11-26T02:03:14.937Z,5.20
2022-11-26T02:08:43.237Z,6.95
2022-11-26T02:14:13.917Z,8.07
2022-11-26T02:20:07.936Z,7.83
2022-11-26T02:25:43.032Z,8.35
2022-11-26T02:31:15.957Z,6.60
2022-11-26T02:36:50.237Z,8.15
2022-11-26T02:42:16.032Z,8.68
2022-11-26T02:47:46.928Z,6.35
2022-11-26T02:53:14.042Z,7.80
2022-11-26T02:58:39.936Z,8.35
2022-11-26T03:04:10.016Z,10.68
2022-11-26T03:09:34.973Z,11.40
2022-11-26T03:15:06.771Z,11.57
2022-11-26T03:20:34.942Z,11.23
2022-11-26T03:25:58.973Z,10.73
2022-11-26T03:31:24.102Z,11.90
2022-11-26T03:36:50.962Z,12.57
2022-11-26T03:42:16.257Z,11.70
2022-11-26T03:47:41.023Z,11.20
2022-11-26T03:53:08.966Z,15.25
2022-11-26T03:58:32.981Z,13.20
2022-11-26T04:03:57.997Z,11.63
2022-11-26T04:09:25.003Z,9.85
2022-11-26T04:14:56.047Z,10.60
2022-11-26T04:20:22.014Z,11.13
2022-11-26T04:25:48.988Z,11.95
2022-11-26T04:31:14.348Z,11.73
2022-11-26T04:36:38.094Z,12.40
2022-11-26T04:42:06.186Z,12.77
2022-11-26T04:47:31.023Z,11.73
2022-11-26T04:52:56.026Z,11.95
2022-11-26T04:58:23.004Z,11.48
2022-11-26T05:03:48.094Z,9.73
2022-11-26T05:09:11.993Z,11.63
2022-11-26T05:14:47.024Z,9.75
2022-11-26T05:20:13.068Z,10.73
2022-11-26T05:25:37.041Z,9.75
2022-11-26T05:31:11.025Z,11.52
2022-11-26T05:36:36.002Z,10.32
2022-11-26T05:42:04.805Z,8.85
2022-11-26T05:47:29.038Z,10.68
2022-11-26T05:52:54.131Z,10.13
2022-11-26T05:58:19.023Z,9.93
2022-11-26T06:03:48.102Z,14.30
2022-11-26T06:09:14.059Z,12.10
2022-11-26T06:14:45.500Z,10.27
2022-11-26T06:20:13.024Z,10.33
2022-11-26T06:25:37.080Z,11.98
2022-11-26T06:31:02.251Z,13.40
2022-11-26T06:36:29.044Z,11.30
2022-11-26T06:41:54.078Z,14.38
2022-11-26T06:47:19.321Z,10.73
2022-11-26T06:52:47.098Z,13.15
2022-11-26T06:58:11.050Z,12.20
2022-11-26T07:03:36.069Z,11.23
2022-11-26T07:09:04.958Z,11.77
2022-11-26T07:14:36.374Z,13.05
2022-11-26T07:20:01.088Z,11.03
2022-11-26T07:25:28.084Z,13.43
2022-11-26T07:30:53.294Z,14.00
2022-11-26T07:36:19.072Z,11.77
2022-11-26T07:41:47.430Z,12.65
2022-11-26T07:47:11.093Z,12.27
2022-11-26T07:52:36.090Z,20.38
2022-11-26T07:58:03.087Z,12.57
2022-11-26T08:03:28.100Z,11.50
2022-11-26T08:08:53.115Z,19.98
2022-11-26T08:14:28.102Z,14.35
2022-11-26T08:19:53.100Z,14.40
2022-11-26T08:25:17.243Z,14.80
2022-11-26T08:30:45.087Z,15.18
2022-11-26T08:36:10.117Z,18.23
2022-11-26T08:41:35.101Z,19.23
2022-11-26T08:47:02.310Z,14.50
2022-11-26T08:52:27.100Z,15.65
2022-11-26T08:57:51.277Z,16.92
2022-11-26T09:03:19.162Z,13.57
2022-11-26T09:09:03.128Z,12.10
2022-11-26T09:14:37.591Z,16.63
2022-11-26T09:20:13.254Z,14.88
2022-11-26T09:25:38.135Z,11.18
2022-11-26T09:31:03.108Z,10.05
2022-11-26T09:36:31.140Z,10.93
2022-11-26T09:42:03.146Z,9.75
2022-11-26T09:53:01.148Z,10.07
2022-11-26T09:58:31.169Z,11.32
2022-11-26T10:03:55.139Z,10.68
2022-11-26T10:09:55.150Z,13.07
2022-11-26T10:15:32.125Z,10.23
2022-11-26T10:21:07.138Z,8.43
2022-11-26T10:26:39.165Z,9.75
2022-11-26T10:32:08.168Z,10.57
2022-11-26T10:37:33.190Z,10.75
2022-11-26T10:43:09.156Z,8.70
2022-11-26T10:48:39.167Z,9.73
2022-11-26T10:54:06.140Z,8.07
2022-11-26T10:59:41.822Z,10.63
2022-11-26T11:05:11.176Z,7.65
2022-11-26T11:10:37.219Z,9.00
2022-11-26T11:16:18.240Z,8.02
2022-11-26T11:21:48.117Z,18.07
2022-11-26T11:27:14.187Z,10.07
2022-11-26T11:32:45.189Z,4.60
2022-11-26T11:38:11.178Z,6.07
2022-11-26T11:43:37.393Z,5.90
2022-11-26T11:49:21.190Z,6.43
2022-11-26T11:54:59.165Z,5.68
2022-11-26T12:00:29.204Z,6.35
2022-11-26T12:06:22.186Z,6.30
2022-11-26T12:11:58.278Z,5.10
2022-11-26T12:17:32.935Z,6.72
2022-11-26T12:23:10.268Z,4.80
2022-11-26T12:28:46.888Z,5.35
2022-11-26T12:34:22.189Z,5.45
2022-11-26T12:39:59.289Z,5.82
2022-11-26T12:45:35.349Z,5.55
2022-11-26T12:51:04.234Z,5.82
2022-11-26T12:56:38.208Z,5.47
2022-11-26T13:02:03.292Z,7.40
2022-11-26T13:07:39.370Z,5.65
2022-11-26T13:13:25.248Z,6.00
2022-11-26T13:18:54.205Z,11.00
2022-11-26T13:24:46.241Z,5.25
2022-11-26T13:36:12.260Z,6.80
2022-11-26T13:42:09.261Z,5.55
2022-11-26T13:47:40.275Z,7.55
2022-11-26T13:53:13.441Z,8.20
2022-11-26T13:58:41.275Z,6.88
2022-11-26T14:04:10.234Z,7.65
2022-11-26T14:10:03.234Z,7.47
2022-11-26T14:16:12.288Z,6.82
2022-11-26T14:21:40.255Z,7.43
2022-11-26T14:27:04.275Z,8.35
2022-11-26T14:32:33.283Z,8.93
2022-11-26T14:38:06.253Z,7.00
2022-11-26T14:43:31.310Z,8.30
2022-11-26T14:49:01.258Z,9.90
2022-11-26T14:54:36.363Z,8.82
2022-11-26T15:00:15.299Z,8.68
2022-11-26T15:05:45.130Z,9.00
2022-11-26T15:11:21.377Z,8.32
2022-11-26T15:16:54.000Z,9.32
2022-11-26T15:22:22.298Z,10.45
2022-11-26T15:27:58.312Z,8.95
2022-11-26T15:33:29.286Z,10.43
2022-11-26T15:39:13.304Z,12.70
2022-11-26T15:44:43.333Z,10.30
2022-11-26T15:50:10.322Z,8.93
2022-11-26T15:55:38.296Z,10.73
2022-11-26T16:01:09.347Z,11.55
2022-11-26T16:06:46.299Z,10.27
2022-11-26T16:12:11.296Z,9.85
2022-11-26T16:17:38.311Z,10.68
2022-11-26T16:23:05.308Z,9.07
2022-11-26T16:28:30.314Z,11.90
2022-11-26T16:33:58.323Z,10.60
2022-11-26T16:39:28.792Z,10.38
2022-11-26T16:45:00.097Z,9.05
2022-11-26T16:55:58.356Z,8.68
2022-11-26T17:01:22.344Z,9.93
2022-11-26T17:06:51.360Z,8.80
2022-11-26T17:12:15.355Z,8.52
2022-11-26T17:17:40.357Z,11.13
2022-11-26T17:23:07.361Z,10.32
2022-11-26T17:28:33.344Z,11.25
2022-11-26T17:33:59.455Z,9.63
2022-11-26T17:39:27.426Z,10.93
2022-11-26T17:44:51.379Z,7.47
2022-11-26T17:50:20.336Z,12.20
2022-11-26T17:55:47.373Z,9.98
2022-11-26T18:01:12.477Z,8.00
2022-11-26T18:06:48.463Z,10.55
2022-11-26T18:12:25.396Z,15.07
2022-11-26T18:17:57.340Z,10.18
2022-11-26T18:23:22.448Z,12.32
2022-11-26T18:28:50.364Z,13.25
2022-11-26T18:34:15.387Z,12.05
2022-11-26T18:39:40.760Z,16.20
2022-11-26T18:45:07.349Z,11.02
2022-11-26T18:50:32.399Z,13.68
2022-11-26T18:55:56.392Z,17.95
2022-11-26T19:01:26.490Z,18.05
2022-11-26T19:06:50.381Z,12.63
2022-11-26T19:12:16.483Z,10.52
2022-11-26T19:17:44.454Z,11.23
2022-11-26T19:23:09.374Z,13.77
2022-11-26T19:28:33.391Z,13.07
2022-11-26T19:34:05.392Z,13.73
2022-11-26T19:39:30.454Z,11.43
2022-11-26T19:44:55.444Z,13.57
2022-11-26T19:50:24.399Z,13.35
2022-11-26T19:55:49.409Z,15.52
2022-11-26T20:01:14.483Z,8.65
2022-11-26T20:06:44.424Z,9.70
2022-11-26T20:12:08.434Z,10.35
2022-11-26T20:17:33.431Z,13.00
2022-11-26T20:23:00.420Z,12.20
2022-11-26T20:28:25.417Z,13.82
2022-11-26T20:33:50.405Z,14.00
2022-11-26T20:39:23.433Z,13.25
2022-11-26T20:44:47.423Z,13.35
2022-11-26T20:50:13.533Z,13.60
2022-11-26T20:55:40.428Z,14.18
2022-11-26T21:01:05.471Z,10.95
2022-11-26T21:06:30.915Z,9.25
2022-11-26T21:11:58.508Z,10.00
2022-11-26T21:17:29.461Z,11.95
2022-11-26T21:22:54.456Z,12.27
2022-11-26T21:28:26.474Z,14.52
2022-11-26T21:33:52.425Z,14.07
2022-11-26T21:39:18.438Z,18.65
2022-11-26T21:44:46.500Z,15.68
2022-11-26T21:50:10.444Z,20.52
2022-11-26T21:55:35.449Z,15.13
2022-11-26T22:01:02.537Z,15.52
2022-11-26T22:06:29.431Z,17.15
2022-11-26T22:11:56.547Z,15.43
2022-11-26T22:17:30.449Z,15.00
2022-11-26T22:22:56.471Z,18.67
2022-11-26T22:28:21.429Z,20.48
2022-11-26T22:33:51.508Z,19.30
2022-11-26T22:39:18.509Z,20.60
2022-11-26T22:44:43.485Z,18.25
2022-11-26T22:50:10.484Z,20.98
2022-11-26T22:55:35.488Z,20.67
2022-11-26T23:01:05.638Z,21.58
2022-11-26T23:06:35.502Z,20.23
2022-11-26T23:12:00.489Z,18.52
2022-11-26T23:17:32.505Z,22.75
2022-11-26T23:23:00.793Z,20.73
2022-11-26T23:28:24.540Z,17.63
2022-11-26T23:33:49.711Z,18.38
2022-11-26T23:39:21.513Z,17.27
2022-11-26T23:44:46.473Z,15.07
2022-11-26T23:50:10.481Z,16.45
2022-11-26T23:55:39.504Z,14.45
